createdAt,value
2022-09-11T00:01:35.184Z,82.30
2022-09-11T00:04:03.571Z,82.30
2022-09-11T00:06:31.214Z,82.20
2022-09-11T00:09:05.419Z,82.00
2022-09-11T00:11:42.488Z,81.50
2022-09-11T00:14:13.962Z,82.00
2022-09-11T00:16:45.626Z,82.10
2022-09-11T00:19:18.845Z,82.00
2022-09-11T00:21:46.632Z,82.10
2022-09-11T00:24:13.724Z,82.10
2022-09-11T00:26:42.234Z,82.10
2022-09-11T00:29:09.761Z,82.00
2022-09-11T00:31:36.970Z,82.10
2022-09-11T00:34:03.944Z,82.10
2022-09-11T00:36:31.866Z,82.20
2022-09-11T00:38:59.668Z,82.10
2022-09-11T00:41:36.597Z,82.10
2022-09-11T00:44:25.344Z,81.10
2022-09-11T00:46:55.925Z,82.10
2022-09-11T00:49:36.237Z,81.80
2022-09-11T00:52:09.672Z,80.70
2022-09-11T00:55:06.523Z,81.60
2022-09-11T00:57:44.264Z,81.30
2022-09-11T01:00:13.351Z,81.80
2022-09-11T01:02:44.843Z,82.00
2022-09-11T01:05:16.427Z,81.80
2022-09-11T01:07:47.092Z,81.90
2022-09-11T01:10:14.624Z,82.00
2022-09-11T01:13:17.581Z,82.00
2022-09-11T01:16:08.849Z,80.60
2022-09-11T01:19:01.937Z,78.50
2022-09-11T01:21:52.337Z,81.00
2022-09-11T01:24:39.322Z,79.80
2022-09-11T01:27:14.097Z,79.60
2022-09-11T01:30:02.534Z,81.50
2022-09-11T01:33:00.740Z,80.70
2022-09-11T01:35:52.874Z,81.00
2022-09-11T01:38:47.816Z,80.70
2022-09-11T01:41:30.049Z,80.80
2022-09-11T01:44:15.973Z,81.20
2022-09-11T01:46:49.939Z,81.10
2022-09-11T01:49:32.306Z,81.70
2022-09-11T01:52:07.586Z,81.80
2022-09-11T01:54:42.747Z,81.80
2022-09-11T01:57:43.755Z,82.10
2022-09-11T02:00:16.280Z,81.40
2022-09-11T02:02:57.961Z,82.40
2022-09-11T02:05:59.731Z,81.40
2022-09-11T02:08:39.458Z,79.80
2022-09-11T02:11:11.078Z,81.70
2022-09-11T02:14:05.658Z,82.10
2022-09-11T02:16:56.029Z,81.30
2022-09-11T02:19:29.534Z,79.50
2022-09-11T02:21:58.443Z,81.50
2022-09-11T02:24:27.902Z,82.00
2022-09-11T02:27:05.972Z,81.70
2022-09-11T02:29:33.432Z,81.30
2022-09-11T02:32:01.339Z,81.60
2022-09-11T02:34:34.193Z,81.50
2022-09-11T02:37:31.515Z,81.40
2022-09-11T02:40:27.189Z,80.00
2022-09-11T02:43:27.644Z,78.90
2022-09-11T02:46:23.989Z,81.60
2022-09-11T02:49:19.478Z,79.20
2022-09-11T02:52:21.181Z,81.00
2022-09-11T02:55:24.053Z,78.80
2022-09-11T02:58:02.744Z,80.50
2022-09-11T03:00:29.878Z,81.40
2022-09-11T03:02:56.788Z,81.50
2022-09-11T03:05:23.609Z,81.60
2022-09-11T03:07:50.500Z,81.80
2022-09-11T03:10:17.298Z,81.90
2022-09-11T03:12:44.153Z,81.80
2022-09-11T03:15:11.677Z,81.90
2022-09-11T03:17:38.870Z,81.80
2022-09-11T03:20:06.626Z,81.90
2022-09-11T03:22:33.411Z,81.90
2022-09-11T03:25:00.265Z,82.00
2022-09-11T03:27:28.147Z,82.10
2022-09-11T03:29:56.220Z,82.30
2022-09-11T03:32:23.037Z,82.40
2022-09-11T03:34:50.299Z,82.40
2022-09-11T03:37:18.190Z,82.30
2022-09-11T03:39:45.026Z,82.30
2022-09-11T03:42:13.009Z,82.30
2022-09-11T03:44:41.035Z,82.30
2022-09-11T03:47:07.981Z,82.50
2022-09-11T03:49:34.798Z,82.50
2022-09-11T03:52:02.242Z,82.60
2022-09-11T03:54:29.103Z,82.70
2022-09-11T03:56:56.348Z,82.60
2022-09-11T03:59:23.195Z,82.60
2022-09-11T04:01:50.720Z,82.40
2022-09-11T04:04:18.424Z,82.50
2022-09-11T04:06:45.231Z,82.50
2022-09-11T04:09:12.039Z,82.40
2022-09-11T04:11:40.065Z,82.60
2022-09-11T04:14:07.992Z,82.60
2022-09-11T04:16:35.645Z,82.50
2022-09-11T04:19:03.252Z,82.60
2022-09-11T04:21:31.194Z,82.40
2022-09-11T04:24:00.287Z,82.30
2022-09-11T04:26:31.089Z,82.40
2022-09-11T04:29:00.042Z,82.20
2022-09-11T04:31:27.878Z,82.40
2022-09-11T04:33:57.786Z,82.40
2022-09-11T04:36:27.024Z,82.40
2022-09-11T04:38:58.788Z,82.30
2022-09-11T04:41:26.465Z,82.10
2022-09-11T04:44:03.826Z,82.30
2022-09-11T04:46:31.442Z,81.80
2022-09-11T04:49:02.340Z,82.50
2022-09-11T04:51:32.590Z,82.50
2022-09-11T04:54:00.439Z,82.10
2022-09-11T04:56:31.041Z,82.00
2022-09-11T04:59:02.006Z,81.70
2022-09-11T05:01:31.468Z,81.80
2022-09-11T05:04:00.483Z,82.00
2022-09-11T05:06:30.246Z,82.20
2022-09-11T05:09:02.976Z,82.40
2022-09-11T05:11:30.266Z,82.60
2022-09-11T05:14:00.202Z,82.40
2022-09-11T05:16:29.810Z,82.50
2022-09-11T05:18:58.819Z,82.50
2022-09-11T05:21:27.707Z,82.60
2022-09-11T05:23:57.938Z,82.50
2022-09-11T05:26:34.873Z,82.60
2022-09-11T05:29:09.798Z,82.70
2022-09-11T05:31:37.312Z,82.90
2022-09-11T05:34:05.207Z,83.10
2022-09-11T05:36:33.451Z,83.30
2022-09-11T05:39:00.935Z,83.50
2022-09-11T05:41:28.135Z,83.50
2022-09-11T05:43:55.343Z,83.50
2022-09-11T05:46:22.579Z,83.50
2022-09-11T05:48:49.351Z,83.50
2022-09-11T05:51:20.334Z,83.70
2022-09-11T05:53:50.408Z,83.50
2022-09-11T05:56:20.689Z,83.60
2022-09-11T05:58:49.305Z,83.60
2022-09-11T06:01:19.784Z,83.70
2022-09-11T06:03:50.030Z,83.80
2022-09-11T06:06:19.699Z,83.80
2022-09-11T06:08:47.889Z,83.70
2022-09-11T06:11:17.988Z,83.90
2022-09-11T06:13:47.589Z,84.00
2022-09-11T06:16:23.131Z,83.80
2022-09-11T06:18:52.590Z,83.90
2022-09-11T06:21:23.586Z,83.90
2022-09-11T06:23:52.598Z,83.80
2022-09-11T06:26:24.447Z,83.90
2022-09-11T06:28:52.899Z,83.50
2022-09-11T06:31:24.291Z,84.00
2022-09-11T06:33:51.662Z,83.70
2022-09-11T06:36:22.993Z,84.20
2022-09-11T06:38:55.555Z,84.20
2022-09-11T06:41:24.521Z,83.20
2022-09-11T06:43:52.704Z,84.40
2022-09-11T06:46:23.004Z,84.50
2022-09-11T06:48:51.816Z,83.80
2022-09-11T06:51:21.992Z,83.60
2022-09-11T06:53:52.908Z,83.80
2022-09-11T06:56:19.685Z,83.50
2022-09-11T06:58:46.619Z,83.00
2022-09-11T07:01:17.804Z,82.50
2022-09-11T07:03:47.491Z,82.40
2022-09-11T07:06:17.258Z,82.40
2022-09-11T07:08:44.389Z,82.00
2022-09-11T07:11:12.859Z,82.10
2022-09-11T07:13:40.112Z,81.80
2022-09-11T07:16:10.202Z,82.50
2022-09-11T07:18:42.611Z,83.00
2022-09-11T07:21:18.948Z,82.90
2022-09-11T07:23:54.452Z,81.70
2022-09-11T07:26:23.828Z,82.20
2022-09-11T07:28:51.671Z,83.00
2022-09-11T07:31:29.323Z,83.00
2022-09-11T07:33:57.211Z,82.50
2022-09-11T07:36:31.719Z,82.60
2022-09-11T07:39:00.111Z,80.50
2022-09-11T07:41:28.543Z,82.30
2022-09-11T07:44:00.282Z,81.20
2022-09-11T07:46:28.956Z,80.60
2022-09-11T07:48:55.861Z,80.70
2022-09-11T07:51:22.843Z,80.40
2022-09-11T07:53:54.325Z,80.70
2022-09-11T07:56:25.262Z,80.00
2022-09-11T07:58:54.971Z,80.80
2022-09-11T08:01:26.028Z,82.00
2022-09-11T08:04:02.984Z,82.50
2022-09-11T08:06:34.073Z,80.80
2022-09-11T08:09:12.998Z,82.20
2022-09-11T08:11:45.891Z,80.90
2022-09-11T08:14:14.316Z,81.80
2022-09-11T08:16:42.272Z,82.50
2022-09-11T08:19:18.161Z,82.20
2022-09-11T08:21:47.591Z,81.30
2022-09-11T08:24:20.251Z,82.70
2022-09-11T08:26:49.089Z,82.70
2022-09-11T08:29:17.285Z,82.10
2022-09-11T08:31:45.293Z,82.00
2022-09-11T08:34:12.362Z,80.70
2022-09-11T08:36:39.383Z,80.30
2022-09-11T08:39:06.740Z,79.30
2022-09-11T08:41:49.440Z,79.00
2022-09-11T08:44:25.440Z,76.20
2022-09-11T08:47:06.832Z,78.00
2022-09-11T08:49:43.972Z,73.50
2022-09-11T08:52:16.814Z,74.90
2022-09-11T08:54:47.457Z,76.10
2022-09-11T08:57:29.048Z,78.30
2022-09-11T09:00:20.529Z,78.10
2022-09-11T09:03:26.288Z,76.80
2022-09-11T09:06:30.449Z,74.70
2022-09-11T09:09:11.935Z,75.70
2022-09-11T09:11:52.760Z,77.90
2022-09-11T09:14:39.607Z,80.20
2022-09-11T09:17:25.063Z,72.70
2022-09-11T09:20:01.728Z,75.90
2022-09-11T09:23:03.516Z,76.40
2022-09-11T09:25:38.226Z,73.80
2022-09-11T09:28:40.466Z,75.60
2022-09-11T09:31:14.303Z,72.50
2022-09-11T09:33:57.453Z,76.80
2022-09-11T09:36:47.628Z,76.00
2022-09-11T09:39:17.532Z,74.40
2022-09-11T09:42:14.081Z,77.80
2022-09-11T09:45:08.504Z,77.70
2022-09-11T09:47:41.526Z,73.70
2022-09-11T09:50:25.326Z,78.10
2022-09-11T09:53:02.995Z,77.60
2022-09-11T09:55:30.659Z,78.70
2022-09-11T09:57:57.941Z,79.20
2022-09-11T10:00:24.796Z,78.90
2022-09-11T10:02:58.352Z,79.20
2022-09-11T10:05:34.740Z,79.10
2022-09-11T10:08:10.243Z,78.90
2022-09-11T10:10:40.595Z,79.50
2022-09-11T10:13:24.864Z,79.50
2022-09-11T10:15:55.503Z,79.50
2022-09-11T10:18:37.667Z,79.60
2022-09-11T10:21:13.346Z,79.80
2022-09-11T10:23:55.224Z,79.20
2022-09-11T10:26:45.834Z,79.20
2022-09-11T10:29:30.235Z,79.70
2022-09-11T10:32:03.313Z,80.30
2022-09-11T10:34:38.484Z,81.00
2022-09-11T10:37:31.610Z,81.10
2022-09-11T10:40:08.749Z,81.30
2022-09-11T10:42:37.938Z,81.20
2022-09-11T10:45:21.836Z,81.70
2022-09-11T10:47:48.858Z,80.40
2022-09-11T10:50:23.094Z,82.40
2022-09-11T10:53:17.934Z,83.20
2022-09-11T10:56:05.961Z,84.20
2022-09-11T10:58:41.867Z,85.10
2022-09-11T11:01:09.784Z,85.80
2022-09-11T11:03:36.819Z,86.40
2022-09-11T11:06:56.186Z,85.60
2022-09-11T11:09:55.756Z,85.10
2022-09-11T11:13:06.499Z,82.30
2022-09-11T11:16:05.793Z,83.00
2022-09-11T11:19:00.786Z,81.80
2022-09-11T11:21:42.585Z,84.60
2022-09-11T11:24:28.545Z,85.70
2022-09-11T11:27:22.815Z,81.20
2022-09-11T11:30:02.538Z,82.40
2022-09-11T11:33:06.649Z,83.30
2022-09-11T11:35:45.773Z,78.50
2022-09-11T11:38:39.447Z,81.90
2022-09-11T11:41:29.280Z,80.10
2022-09-11T11:44:01.464Z,78.70
2022-09-11T11:46:42.757Z,79.80
2022-09-11T11:49:45.637Z,78.70
2022-09-11T11:52:31.387Z,78.80
2022-09-11T11:55:16.800Z,78.90
2022-09-11T11:58:00.559Z,80.20
2022-09-11T12:00:29.798Z,82.80
2022-09-11T12:03:18.152Z,84.50
2022-09-11T12:05:45.019Z,83.00
2022-09-11T12:08:16.663Z,86.00
2022-09-11T12:10:56.424Z,84.10
2022-09-11T12:13:34.590Z,84.70
2022-09-11T12:16:28.518Z,85.30
2022-09-11T12:19:21.666Z,84.70
2022-09-11T12:21:54.561Z,84.90
2022-09-11T12:24:50.135Z,87.00
2022-09-11T12:27:35.101Z,86.20
2022-09-11T12:30:09.652Z,80.70
2022-09-11T12:32:45.220Z,82.40
2022-09-11T12:35:41.542Z,82.10
2022-09-11T12:38:13.238Z,79.20
2022-09-11T12:41:07.466Z,82.40
2022-09-11T12:43:37.326Z,78.50
2022-09-11T12:46:12.933Z,83.30
2022-09-11T12:49:00.445Z,84.90
2022-09-11T12:51:43.012Z,83.80
2022-09-11T12:54:25.178Z,82.30
2022-09-11T12:57:12.935Z,82.00
2022-09-11T12:59:45.593Z,79.50
2022-09-11T13:02:39.367Z,81.10
2022-09-11T13:05:34.422Z,77.10
2022-09-11T13:08:16.643Z,76.20
2022-09-11T13:10:46.710Z,78.90
2022-09-11T13:13:35.401Z,80.10
2022-09-11T13:16:31.005Z,78.10
2022-09-11T13:19:10.242Z,79.10
2022-09-11T13:21:40.732Z,80.10
2022-09-11T13:24:31.819Z,81.20
2022-09-11T13:27:07.518Z,78.30
2022-09-11T13:29:38.491Z,80.00
2022-09-11T13:32:16.305Z,81.60
2022-09-11T13:34:47.434Z,81.00
2022-09-11T13:37:33.078Z,82.60
2022-09-11T13:40:01.801Z,80.30
2022-09-11T13:42:30.082Z,82.60
2022-09-11T13:44:59.283Z,83.00
2022-09-11T13:47:31.377Z,82.40
2022-09-11T13:50:14.146Z,81.80
2022-09-11T13:52:44.678Z,81.80
2022-09-11T13:55:19.397Z,83.40
2022-09-11T13:58:30.973Z,84.10
2022-09-11T14:01:16.667Z,82.60
2022-09-11T14:03:47.766Z,83.30
2022-09-11T14:06:18.746Z,84.50
2022-09-11T14:08:57.312Z,84.40
2022-09-11T14:11:32.440Z,83.50
2022-09-11T14:14:11.745Z,83.70
2022-09-11T14:16:49.544Z,84.70
2022-09-11T14:19:24.693Z,84.80
2022-09-11T14:21:52.332Z,88.40
2022-09-11T14:24:38.449Z,90.50
2022-09-11T14:27:37.323Z,88.00
2022-09-11T14:30:34.801Z,90.20
2022-09-11T14:33:24.774Z,85.90
2022-09-11T14:35:59.701Z,86.60
2022-09-11T14:38:26.546Z,89.80
2022-09-11T14:41:04.043Z,91.10
2022-09-11T14:43:34.878Z,91.20
2022-09-11T14:46:03.599Z,99.90
2022-09-11T14:48:33.744Z,99.90
2022-09-11T14:51:09.891Z,99.90
2022-09-11T14:53:38.339Z,99.90
2022-09-11T14:56:05.616Z,99.90
2022-09-11T14:58:32.627Z,99.90
2022-09-11T15:00:59.490Z,91.00
2022-09-11T15:03:26.387Z,91.30
2022-09-11T15:05:58.303Z,89.10
2022-09-11T15:08:25.858Z,71.20
2022-09-11T15:10:53.608Z,70.30
2022-09-11T15:13:21.587Z,65.10
2022-09-11T15:15:48.525Z,63.30
2022-09-11T15:18:18.565Z,63.20
2022-09-11T15:20:45.665Z,61.80
2022-09-11T15:23:12.586Z,64.40
2022-09-11T15:25:39.347Z,66.20
2022-09-11T15:28:09.946Z,67.50
2022-09-11T15:30:39.674Z,69.30
2022-09-11T15:33:06.483Z,64.20
2022-09-11T15:35:33.334Z,74.90
2022-09-11T15:38:00.801Z,78.20
2022-09-11T15:40:27.627Z,78.80
2022-09-11T15:42:56.737Z,78.90
2022-09-11T15:45:23.779Z,76.50
2022-09-11T15:47:50.693Z,77.60
2022-09-11T15:50:21.612Z,77.40
2022-09-11T15:52:48.457Z,77.40
2022-09-11T15:55:15.338Z,78.50
2022-09-11T15:57:42.111Z,79.50
2022-09-11T16:00:10.141Z,80.90
2022-09-11T16:02:36.954Z,80.60
2022-09-11T16:05:04.310Z,79.60
2022-09-11T16:07:31.131Z,80.30
2022-09-11T16:09:58.533Z,80.20
2022-09-11T16:12:26.236Z,78.80
2022-09-11T16:14:53.050Z,78.40
2022-09-11T16:17:21.569Z,77.90
2022-09-11T16:19:48.473Z,78.10
2022-09-11T16:22:15.280Z,78.80
2022-09-11T16:24:42.456Z,79.40
2022-09-11T16:27:10.707Z,80.00
2022-09-11T16:30:11.380Z,80.30
2022-09-11T16:32:37.344Z,80.40
2022-09-11T16:35:04.810Z,80.40
2022-09-11T16:37:33.369Z,81.10
2022-09-11T16:40:02.683Z,82.20
2022-09-11T16:42:30.016Z,81.60
2022-09-11T16:44:56.952Z,81.80
2022-09-11T16:47:24.346Z,82.10
2022-09-11T16:50:06.330Z,82.00
2022-09-11T16:52:34.587Z,82.00
2022-09-11T16:55:01.753Z,82.20
2022-09-11T16:57:28.655Z,82.30
2022-09-11T16:59:55.500Z,82.40
2022-09-11T17:02:22.353Z,82.80
2022-09-11T17:04:49.159Z,82.60
2022-09-11T17:07:16.012Z,82.20
2022-09-11T17:09:43.744Z,82.00
2022-09-11T17:12:11.538Z,81.80
2022-09-11T17:14:38.619Z,81.60
2022-09-11T17:17:05.772Z,81.20
2022-09-11T17:19:32.569Z,81.40
2022-09-11T17:21:59.882Z,80.80
2022-09-11T17:24:26.850Z,81.20
2022-09-11T17:26:54.056Z,81.40
2022-09-11T17:29:20.895Z,81.80
2022-09-11T17:31:47.779Z,82.10
2022-09-11T17:34:14.819Z,82.50
2022-09-11T17:36:43.225Z,82.50
2022-09-11T17:39:10.135Z,82.30
2022-09-11T17:41:37.339Z,82.20
2022-09-11T17:44:04.489Z,82.40
2022-09-11T17:46:31.521Z,82.60
2022-09-11T17:48:58.876Z,82.80
2022-09-11T17:51:27.825Z,82.90
2022-09-11T17:53:58.253Z,83.00
2022-09-11T17:56:30.824Z,82.80
2022-09-11T17:59:00.519Z,83.00
2022-09-11T18:01:31.382Z,83.40
2022-09-11T18:03:59.906Z,83.40
2022-09-11T18:06:36.137Z,83.70
2022-09-11T18:09:16.182Z,83.90
2022-09-11T18:11:46.636Z,82.60
2022-09-11T18:14:15.608Z,83.90
2022-09-11T18:16:45.263Z,84.00
2022-09-11T18:19:14.546Z,84.00
2022-09-11T18:21:41.633Z,84.10
2022-09-11T18:24:09.934Z,84.20
2022-09-11T18:26:40.154Z,84.20
2022-09-11T18:29:14.169Z,84.30
2022-09-11T18:31:45.104Z,83.10
2022-09-11T18:34:22.889Z,83.90
2022-09-11T18:36:50.072Z,81.90
2022-09-11T18:39:19.034Z,83.90
2022-09-11T18:44:23.039Z,83.90
2022-09-11T18:46:54.447Z,83.80
2022-09-11T18:49:22.126Z,83.10
2022-09-11T18:51:49.225Z,84.00
2022-09-11T18:54:22.635Z,84.10
2022-09-11T18:56:51.056Z,83.60
2022-09-11T18:59:19.916Z,84.00
2022-09-11T19:01:46.867Z,84.10
2022-09-11T19:04:15.184Z,84.10
2022-09-11T19:06:42.447Z,84.20
2022-09-11T19:09:12.354Z,84.20
2022-09-11T19:11:40.064Z,84.00
2022-09-11T19:14:10.481Z,84.20
2022-09-11T19:16:39.506Z,84.10
2022-09-11T19:19:07.538Z,84.30
2022-09-11T19:21:35.155Z,84.40
2022-09-11T19:24:02.693Z,84.30
2022-09-11T19:26:40.093Z,84.30
2022-09-11T19:29:13.292Z,82.10
2022-09-11T19:31:40.652Z,84.20
2022-09-11T19:34:11.947Z,84.30
2022-09-11T19:36:41.113Z,84.40
2022-09-11T19:39:10.290Z,84.60
2022-09-11T19:41:39.537Z,84.80
2022-09-11T19:44:12.296Z,84.70
2022-09-11T19:46:40.957Z,84.70
2022-09-11T19:49:10.135Z,84.80
2022-09-11T19:51:41.335Z,84.80
2022-09-11T19:54:11.607Z,84.40
2022-09-11T19:56:39.182Z,84.40
2022-09-11T19:59:08.178Z,84.20
2022-09-11T20:01:35.736Z,84.10
2022-09-11T20:04:03.209Z,83.90
2022-09-11T20:06:33.439Z,83.60
2022-09-11T20:09:29.702Z,83.20
2022-09-11T20:11:48.223Z,83.50
2022-09-11T20:14:15.154Z,83.50
2022-09-11T20:16:42.098Z,83.60
2022-09-11T20:19:10.431Z,83.50
2022-09-11T20:21:37.622Z,83.40
2022-09-11T20:24:06.433Z,83.30
2022-09-11T20:26:34.591Z,83.30
2022-09-11T20:29:09.471Z,83.20
2022-09-11T20:31:46.819Z,82.90
2022-09-11T20:34:15.251Z,83.00
2022-09-11T20:36:42.262Z,83.20
2022-09-11T20:39:13.533Z,83.70
2022-09-11T20:41:41.461Z,82.90
2022-09-11T20:44:08.776Z,83.20
2022-09-11T20:46:35.810Z,83.20
2022-09-11T20:49:04.694Z,83.30
2022-09-11T20:51:33.424Z,83.20
2022-09-11T20:54:00.895Z,83.20
2022-09-11T20:56:28.451Z,83.30
2022-09-11T20:58:56.339Z,83.40
2022-09-11T21:01:26.468Z,83.50
2022-09-11T21:03:56.616Z,83.40
2022-09-11T21:06:26.925Z,83.40
2022-09-11T21:08:56.697Z,83.50
2022-09-11T21:11:26.368Z,83.50
2022-09-11T21:13:53.590Z,83.70
2022-09-11T21:16:20.894Z,83.70
2022-09-11T21:18:51.449Z,83.70
2022-09-11T21:21:20.223Z,83.60
2022-09-11T21:23:47.828Z,83.70
2022-09-11T21:26:16.957Z,83.80
2022-09-11T21:28:44.451Z,83.80
2022-09-11T21:31:12.062Z,83.90
2022-09-11T21:33:39.394Z,83.70
2022-09-11T21:36:07.153Z,83.50
2022-09-11T21:38:34.664Z,83.40
2022-09-11T21:41:07.034Z,83.50
2022-09-11T21:43:34.375Z,83.40
2022-09-11T21:46:01.850Z,83.60
2022-09-11T21:48:32.390Z,83.60
2022-09-11T21:51:12.974Z,83.60
2022-09-11T21:53:42.726Z,82.60
2022-09-11T21:56:25.301Z,83.70
2022-09-11T21:58:53.281Z,82.50
2022-09-11T22:01:22.908Z,83.80
2022-09-11T22:03:50.821Z,83.90
2022-09-11T22:06:19.004Z,84.00
2022-09-11T22:08:47.046Z,84.10
2022-09-11T22:11:15.917Z,84.20
2022-09-11T22:13:43.565Z,84.20
2022-09-11T22:16:18.627Z,84.30
2022-09-11T22:18:50.061Z,84.10
2022-09-11T22:21:17.810Z,83.90
2022-09-11T22:23:45.273Z,84.30
2022-09-11T22:26:19.880Z,84.20
2022-09-11T22:28:47.391Z,84.00
2022-09-11T22:31:22.411Z,84.30
2022-09-11T22:33:49.480Z,83.60
2022-09-11T22:36:26.891Z,84.20
2022-09-11T22:38:54.005Z,83.50
2022-09-11T22:41:21.227Z,84.50
2022-09-11T22:43:49.928Z,84.10
2022-09-11T22:46:20.503Z,84.00
2022-09-11T22:48:48.604Z,83.80
2022-09-11T22:51:16.577Z,83.70
2022-09-11T22:53:43.673Z,83.60
2022-09-11T22:56:11.333Z,83.40
2022-09-11T22:58:38.534Z,83.20
2022-09-11T23:01:09.510Z,83.10
2022-09-11T23:03:37.142Z,82.90
2022-09-11T23:06:23.246Z,83.00
2022-09-11T23:08:50.707Z,83.00
2022-09-11T23:11:19.938Z,83.10
2022-09-11T23:13:48.572Z,83.20
2022-09-11T23:16:26.479Z,83.10
2022-09-11T23:19:01.150Z,82.00
2022-09-11T23:21:30.228Z,82.50
2022-09-11T23:23:58.688Z,83.20
2022-09-11T23:26:28.708Z,83.20
2022-09-11T23:28:56.267Z,83.10
2022-09-11T23:31:29.968Z,83.20
2022-09-11T23:34:04.308Z,83.20
2022-09-11T23:36:31.548Z,83.20
2022-09-11T23:38:59.477Z,83.30
2022-09-11T23:41:27.332Z,83.30
2022-09-11T23:43:54.776Z,83.30
2022-09-11T23:46:21.696Z,83.30
2022-09-11T23:48:48.781Z,83.30
2022-09-11T23:51:16.611Z,83.20
2022-09-11T23:53:45.209Z,83.20
2022-09-11T23:56:16.827Z,83.10
2022-09-11T23:58:45.582Z,83.10
